createdAt,value
2022-08-30T00:02:17.028Z,14.72
2022-08-30T00:04:43.418Z,14.80
2022-08-30T00:07:10.676Z,14.71
2022-08-30T00:09:37.011Z,14.70
2022-08-30T00:12:04.323Z,14.79
2022-08-30T00:14:30.675Z,14.70
2022-08-30T00:16:57.110Z,14.82
2022-08-30T00:19:24.282Z,14.77
2022-08-30T00:21:50.650Z,14.77
2022-08-30T00:24:17.041Z,14.83
2022-08-30T00:26:43.394Z,14.76
2022-08-30T00:29:11.733Z,14.66
2022-08-30T00:31:38.089Z,14.59
2022-08-30T00:34:05.065Z,14.58
2022-08-30T00:36:31.419Z,14.72
2022-08-30T00:38:57.760Z,14.63
2022-08-30T00:41:24.167Z,14.67
2022-08-30T00:43:50.495Z,14.69
2022-08-30T00:46:16.939Z,14.76
2022-08-30T00:48:47.705Z,14.74
2022-08-30T00:51:15.352Z,14.73
2022-08-30T00:53:44.166Z,14.90
2022-08-30T00:56:11.060Z,15.01
2022-08-30T00:58:38.815Z,14.98
2022-08-30T01:01:06.347Z,14.79
2022-08-30T01:03:33.189Z,14.81
2022-08-30T01:05:59.781Z,14.92
2022-08-30T01:08:26.457Z,14.96
2022-08-30T01:10:53.541Z,15.02
2022-08-30T01:13:21.695Z,15.05
2022-08-30T01:15:49.164Z,15.07
2022-08-30T01:18:17.421Z,15.04
2022-08-30T01:21:19.795Z,15.07
2022-08-30T01:23:47.441Z,15.19
2022-08-30T01:26:14.704Z,15.03
2022-08-30T01:28:42.665Z,14.96
2022-08-30T01:31:10.724Z,14.98
2022-08-30T01:33:39.966Z,14.97
2022-08-30T01:36:08.095Z,14.98
2022-08-30T01:38:35.649Z,15.08
2022-08-30T01:41:21.753Z,15.06
2022-08-30T01:43:48.979Z,15.31
2022-08-30T01:46:16.559Z,15.42
2022-08-30T01:48:50.385Z,15.45
2022-08-30T01:51:21.838Z,15.60
2022-08-30T01:53:48.164Z,15.63
2022-08-30T01:56:15.461Z,15.74
2022-08-30T01:58:41.847Z,15.70
2022-08-30T02:01:12.518Z,15.66
2022-08-30T02:03:39.546Z,15.68
2022-08-30T02:06:07.283Z,15.50
2022-08-30T02:08:34.539Z,15.48
2022-08-30T02:11:01.366Z,15.59
2022-08-30T02:13:27.765Z,15.75
2022-08-30T02:15:54.659Z,15.66
2022-08-30T02:18:21.852Z,15.81
2022-08-30T02:20:48.216Z,15.70
2022-08-30T02:23:14.627Z,15.64
2022-08-30T02:25:41.533Z,15.73
2022-08-30T02:28:08.040Z,15.75
2022-08-30T02:30:34.872Z,15.66
2022-08-30T02:33:01.305Z,15.70
2022-08-30T02:35:27.728Z,15.75
2022-08-30T02:37:54.074Z,15.78
2022-08-30T02:40:22.186Z,15.54
2022-08-30T02:42:49.379Z,15.62
2022-08-30T02:45:16.077Z,15.69
2022-08-30T02:47:47.122Z,15.70
2022-08-30T02:50:13.767Z,15.79
2022-08-30T02:52:40.224Z,15.71
2022-08-30T02:55:06.997Z,15.85
2022-08-30T02:57:33.623Z,15.83
2022-08-30T03:00:01.243Z,15.90
2022-08-30T03:02:27.689Z,15.87
2022-08-30T03:04:54.074Z,15.74
2022-08-30T03:07:20.693Z,15.68
2022-08-30T03:09:47.008Z,15.71
2022-08-30T03:12:13.664Z,15.67
2022-08-30T03:14:40.016Z,15.61
2022-08-30T03:17:12.956Z,15.54
2022-08-30T03:19:42.049Z,15.47
2022-08-30T03:22:08.562Z,15.65
2022-08-30T03:24:34.932Z,15.65
2022-08-30T03:27:01.359Z,15.56
2022-08-30T03:29:29.606Z,15.60
2022-08-30T03:31:56.622Z,15.65
2022-08-30T03:34:23.728Z,15.81
2022-08-30T03:36:50.717Z,15.86
2022-08-30T03:39:17.045Z,15.94
2022-08-30T03:41:43.453Z,15.98
2022-08-30T03:44:10.018Z,16.06
2022-08-30T03:46:37.589Z,16.00
2022-08-30T03:49:04.841Z,16.09
2022-08-30T03:51:31.381Z,15.89
2022-08-30T03:53:57.740Z,15.79
2022-08-30T03:56:24.804Z,16.03
2022-08-30T03:58:51.520Z,15.90
2022-08-30T04:01:17.930Z,16.02
2022-08-30T04:03:44.318Z,15.94
2022-08-30T04:06:10.717Z,15.88
2022-08-30T04:08:37.183Z,15.74
2022-08-30T04:11:04.959Z,15.79
2022-08-30T04:13:31.639Z,15.81
2022-08-30T04:15:58.106Z,15.83
2022-08-30T04:18:24.481Z,15.74
2022-08-30T04:20:52.636Z,15.86
2022-08-30T04:23:19.370Z,15.91
2022-08-30T04:25:45.848Z,15.86
2022-08-30T04:28:12.561Z,15.75
2022-08-30T04:30:39.965Z,15.85
2022-08-30T04:33:06.832Z,15.65
2022-08-30T04:35:33.603Z,15.69
2022-08-30T04:37:59.960Z,15.69
2022-08-30T04:40:26.391Z,15.76
2022-08-30T04:42:54.439Z,15.77
2022-08-30T04:45:21.669Z,15.85
2022-08-30T04:47:48.219Z,15.81
2022-08-30T04:50:16.502Z,15.83
2022-08-30T04:52:43.513Z,15.75
2022-08-30T04:55:10.703Z,15.67
2022-08-30T04:57:37.802Z,15.84
2022-08-30T05:00:08.987Z,15.92
2022-08-30T05:02:35.431Z,15.86
2022-08-30T05:05:20.660Z,15.99
2022-08-30T05:07:47.170Z,15.89
2022-08-30T05:10:13.562Z,16.07
2022-08-30T05:12:40.758Z,15.88
2022-08-30T05:15:08.007Z,15.97
2022-08-30T05:17:34.364Z,15.98
2022-08-30T05:20:01.396Z,16.25
2022-08-30T05:22:28.030Z,16.19
2022-08-30T05:24:54.363Z,16.25
2022-08-30T05:27:20.743Z,16.32
2022-08-30T05:29:47.139Z,16.37
2022-08-30T05:32:13.496Z,16.30
2022-08-30T05:34:39.846Z,16.40
2022-08-30T05:37:06.209Z,16.51
2022-08-30T05:39:50.664Z,16.56
2022-08-30T05:42:18.366Z,16.64
2022-08-30T05:44:44.714Z,16.55
2022-08-30T05:47:11.069Z,16.70
2022-08-30T05:49:37.416Z,16.71
2022-08-30T05:52:04.189Z,16.59
2022-08-30T05:54:30.551Z,16.72
2022-08-30T05:56:56.905Z,16.72
2022-08-30T05:59:23.240Z,16.70
2022-08-30T06:01:49.861Z,16.76
2022-08-30T06:04:16.571Z,16.69
2022-08-30T06:06:43.856Z,16.83
2022-08-30T06:09:11.488Z,16.67
2022-08-30T06:11:37.899Z,16.59
2022-08-30T06:14:04.660Z,16.34
2022-08-30T06:16:31.059Z,16.62
2022-08-30T06:18:58.363Z,16.71
2022-08-30T06:21:26.009Z,16.68
2022-08-30T06:23:52.929Z,16.68
2022-08-30T06:26:19.381Z,16.48
2022-08-30T06:28:45.862Z,16.79
2022-08-30T06:31:13.382Z,16.75
2022-08-30T06:33:40.307Z,16.71
2022-08-30T06:36:08.687Z,16.87
2022-08-30T06:38:35.553Z,16.86
2022-08-30T06:41:05.769Z,16.69
2022-08-30T06:43:32.126Z,16.69
2022-08-30T06:46:10.872Z,16.69
2022-08-30T06:48:39.222Z,16.86
2022-08-30T06:51:06.264Z,16.88
2022-08-30T06:53:33.674Z,16.87
2022-08-30T06:56:10.330Z,16.99
2022-08-30T06:58:37.917Z,16.89
2022-08-30T07:01:05.258Z,17.02
2022-08-30T07:03:31.690Z,17.16
2022-08-30T07:05:58.127Z,17.08
2022-08-30T07:08:25.411Z,16.96
2022-08-30T07:10:53.956Z,16.93
2022-08-30T07:13:22.360Z,17.15
2022-08-30T07:15:48.808Z,17.05
2022-08-30T07:18:33.754Z,17.07
2022-08-30T07:21:05.836Z,17.05
2022-08-30T07:23:32.187Z,17.07
2022-08-30T07:25:58.749Z,17.17
2022-08-30T07:28:25.149Z,17.12
2022-08-30T07:30:51.550Z,17.16
2022-08-30T07:33:18.035Z,17.15
2022-08-30T07:35:44.601Z,17.13
2022-08-30T07:38:14.442Z,17.08
2022-08-30T07:40:42.756Z,17.07
2022-08-30T07:43:09.261Z,17.03
2022-08-30T07:45:36.792Z,17.16
2022-08-30T07:48:03.405Z,17.11
2022-08-30T07:50:30.122Z,17.09
2022-08-30T07:52:56.483Z,17.14
2022-08-30T07:55:22.892Z,17.07
2022-08-30T07:57:49.383Z,17.06
2022-08-30T08:00:16.050Z,17.00
2022-08-30T08:02:42.537Z,17.05
2022-08-30T08:05:12.802Z,17.23
2022-08-30T08:07:42.912Z,17.08
2022-08-30T08:10:10.187Z,17.08
2022-08-30T08:12:36.590Z,16.94
2022-08-30T08:15:06.646Z,17.03
2022-08-30T08:17:35.237Z,17.18
2022-08-30T08:20:01.771Z,17.09
2022-08-30T08:22:28.122Z,16.99
2022-08-30T08:24:54.575Z,16.96
2022-08-30T08:27:20.956Z,16.96
2022-08-30T08:29:47.405Z,16.94
2022-08-30T08:32:13.759Z,16.94
2022-08-30T08:34:41.408Z,17.08
2022-08-30T08:37:07.832Z,16.95
2022-08-30T08:39:34.216Z,17.18
2022-08-30T08:42:00.552Z,17.18
2022-08-30T08:44:34.266Z,17.18
2022-08-30T08:47:11.640Z,17.15
2022-08-30T08:49:40.921Z,17.25
2022-08-30T08:52:26.695Z,17.38
2022-08-30T08:54:56.380Z,17.33
2022-08-30T08:57:25.745Z,17.48
2022-08-30T08:59:54.286Z,17.50
2022-08-30T09:02:26.504Z,17.61
2022-08-30T09:04:58.653Z,17.57
2022-08-30T09:07:27.936Z,17.66
2022-08-30T09:09:54.398Z,17.73
2022-08-30T09:12:22.402Z,17.78
2022-08-30T09:17:50.140Z,17.85
2022-08-30T09:20:24.505Z,17.87
2022-08-30T09:22:50.873Z,17.80
2022-08-30T09:25:20.005Z,17.81
2022-08-30T09:27:47.492Z,17.89
2022-08-30T09:30:27.263Z,17.82
2022-08-30T09:32:54.263Z,17.89
2022-08-30T09:35:22.877Z,17.85
2022-08-30T09:37:56.614Z,17.80
2022-08-30T09:40:35.920Z,17.75
2022-08-30T09:43:06.034Z,17.94
2022-08-30T09:45:35.966Z,17.98
2022-08-30T09:48:21.036Z,18.09
2022-08-30T09:50:49.097Z,17.84
2022-08-30T09:53:23.874Z,17.86
2022-08-30T09:55:50.305Z,17.84
2022-08-30T09:58:25.674Z,17.89
2022-08-30T10:00:55.759Z,17.89
2022-08-30T10:03:35.821Z,17.86
2022-08-30T10:06:12.457Z,17.86
2022-08-30T10:08:44.765Z,17.93
2022-08-30T10:11:23.681Z,17.87
2022-08-30T10:13:51.516Z,17.97
2022-08-30T10:16:36.841Z,17.96
2022-08-30T10:19:04.301Z,17.93
2022-08-30T10:21:39.391Z,17.78
2022-08-30T10:24:08.354Z,17.83
2022-08-30T10:26:36.805Z,17.78
2022-08-30T10:29:15.237Z,17.76
2022-08-30T10:31:42.524Z,17.91
2022-08-30T10:34:12.092Z,17.88
2022-08-30T10:36:50.929Z,17.82
2022-08-30T10:39:22.258Z,18.00
2022-08-30T10:41:50.810Z,17.97
2022-08-30T10:44:27.218Z,17.95
2022-08-30T10:47:02.754Z,18.10
2022-08-30T10:49:31.563Z,18.15
2022-08-30T10:52:12.292Z,18.21
2022-08-30T10:54:44.307Z,18.16
2022-08-30T10:57:10.793Z,18.16
2022-08-30T10:59:38.414Z,18.12
2022-08-30T11:02:15.475Z,18.27
2022-08-30T11:05:00.874Z,18.35
2022-08-30T11:07:27.351Z,18.39
2022-08-30T11:10:12.787Z,18.33
2022-08-30T11:12:58.453Z,18.20
2022-08-30T11:15:30.656Z,18.35
2022-08-30T11:18:02.804Z,18.22
2022-08-30T11:20:29.303Z,18.40
2022-08-30T11:23:25.310Z,18.26
2022-08-30T11:25:57.857Z,18.24
2022-08-30T11:28:50.762Z,18.21
2022-08-30T11:34:09.925Z,18.13
2022-08-30T11:36:45.985Z,18.20
2022-08-30T11:39:32.624Z,18.29
2022-08-30T11:42:12.646Z,18.17
2022-08-30T11:44:40.528Z,18.20
2022-08-30T11:47:36.027Z,18.12
2022-08-30T11:50:22.975Z,18.18
2022-08-30T11:53:34.236Z,18.19
2022-08-30T11:56:08.710Z,18.30
2022-08-30T11:58:51.549Z,18.32
2022-08-30T12:01:50.971Z,18.26
2022-08-30T12:04:15.407Z,18.31
2022-08-30T12:06:41.941Z,18.32
2022-08-30T12:09:30.229Z,18.26
2022-08-30T12:12:07.386Z,18.38
2022-08-30T12:14:36.893Z,18.43
2022-08-30T12:17:31.708Z,18.13
2022-08-30T12:19:59.814Z,18.26
2022-08-30T12:22:27.145Z,18.26
2022-08-30T12:24:54.599Z,18.31
2022-08-30T12:27:33.246Z,18.36
2022-08-30T12:30:05.988Z,18.28
2022-08-30T12:32:32.954Z,18.44
2022-08-30T12:35:00.778Z,18.50
2022-08-30T12:37:27.122Z,18.59
2022-08-30T12:40:08.725Z,18.65
2022-08-30T12:42:37.238Z,18.68
2022-08-30T12:45:07.831Z,18.69
2022-08-30T12:47:45.091Z,18.69
2022-08-30T12:50:15.450Z,18.72
2022-08-30T12:52:48.185Z,18.82
2022-08-30T12:55:20.030Z,18.87
2022-08-30T12:58:00.526Z,18.86
2022-08-30T13:00:32.926Z,18.89
2022-08-30T13:03:02.420Z,18.84
2022-08-30T13:05:29.983Z,18.94
2022-08-30T13:08:15.928Z,18.94
2022-08-30T13:10:52.221Z,18.90
2022-08-30T13:13:32.933Z,18.91
2022-08-30T13:16:09.938Z,18.89
2022-08-30T13:18:36.400Z,18.94
2022-08-30T13:21:32.518Z,19.02
2022-08-30T13:24:00.258Z,18.97
2022-08-30T13:26:29.315Z,18.86
2022-08-30T13:28:58.872Z,18.83
2022-08-30T13:31:26.717Z,18.78
2022-08-30T13:33:54.001Z,18.71
2022-08-30T13:36:28.211Z,18.82
2022-08-30T13:38:55.373Z,18.81
2022-08-30T13:41:21.966Z,18.77
2022-08-30T13:46:35.910Z,18.63
2022-08-30T13:49:04.754Z,18.51
2022-08-30T13:51:31.638Z,18.59
2022-08-30T13:53:58.323Z,18.70
2022-08-30T13:56:25.650Z,18.66
2022-08-30T13:58:52.021Z,18.44
2022-08-30T14:01:19.282Z,18.56
2022-08-30T14:06:34.345Z,18.57
2022-08-30T14:09:03.884Z,18.54
2022-08-30T14:11:31.143Z,18.59
2022-08-30T14:16:44.531Z,18.76
2022-08-30T14:19:12.400Z,18.70
2022-08-30T14:21:38.859Z,18.63
2022-08-30T14:24:06.389Z,18.63
2022-08-30T14:26:39.401Z,18.69
2022-08-30T14:29:09.282Z,18.71
2022-08-30T14:31:36.253Z,18.68
2022-08-30T14:34:05.139Z,18.78
2022-08-30T14:36:32.648Z,18.79
2022-08-30T14:38:59.954Z,18.73
2022-08-30T14:41:27.041Z,18.83
2022-08-30T14:43:53.446Z,18.74
2022-08-30T14:46:20.149Z,18.85
2022-08-30T14:48:47.041Z,18.66
2022-08-30T14:51:14.911Z,18.69
2022-08-30T14:53:41.526Z,18.74
2022-08-30T14:56:12.433Z,18.79
2022-08-30T14:58:39.339Z,18.73
2022-08-30T15:01:06.768Z,18.65
2022-08-30T15:03:33.371Z,18.65
2022-08-30T15:06:00.858Z,18.82
2022-08-30T15:08:27.369Z,18.70
2022-08-30T15:10:53.814Z,18.73
2022-08-30T15:13:20.239Z,18.75
2022-08-30T15:15:49.389Z,18.70
2022-08-30T15:18:17.049Z,18.59
2022-08-30T15:20:47.754Z,18.68
2022-08-30T15:23:14.483Z,18.66
2022-08-30T15:25:43.540Z,18.51
2022-08-30T15:28:09.997Z,18.48
2022-08-30T15:30:36.752Z,18.44
2022-08-30T15:33:03.170Z,18.44
2022-08-30T15:35:29.615Z,18.41
2022-08-30T15:37:57.485Z,18.44
2022-08-30T15:40:24.616Z,18.42
2022-08-30T15:42:52.887Z,18.49
2022-08-30T15:45:19.320Z,18.52
2022-08-30T15:47:46.076Z,18.44
2022-08-30T15:50:13.657Z,18.49
2022-08-30T15:52:40.093Z,18.35
2022-08-30T15:55:06.850Z,18.52
2022-08-30T15:57:33.305Z,18.54
2022-08-30T15:59:59.700Z,18.53
2022-08-30T16:02:27.851Z,18.58
2022-08-30T16:04:54.520Z,18.59
2022-08-30T16:07:21.005Z,18.76
2022-08-30T16:09:47.466Z,18.82
2022-08-30T16:12:22.325Z,18.81
2022-08-30T16:14:50.462Z,18.79
2022-08-30T16:17:17.099Z,18.77
2022-08-30T16:19:44.669Z,18.84
2022-08-30T16:22:11.392Z,18.87
2022-08-30T16:24:38.266Z,18.85
2022-08-30T16:27:05.621Z,18.82
2022-08-30T16:29:35.122Z,18.83
2022-08-30T16:32:01.591Z,18.79
2022-08-30T16:34:28.024Z,18.68
2022-08-30T16:36:54.543Z,18.76
2022-08-30T16:39:20.973Z,18.69
2022-08-30T16:41:47.501Z,18.72
2022-08-30T16:44:15.952Z,18.71
2022-08-30T16:46:42.765Z,18.58
2022-08-30T16:49:10.576Z,18.60
2022-08-30T16:51:38.097Z,18.56
2022-08-30T16:54:07.674Z,18.63
2022-08-30T16:56:35.222Z,18.48
2022-08-30T16:59:03.170Z,18.61
2022-08-30T17:01:32.367Z,18.61
2022-08-30T17:04:01.203Z,18.54
2022-08-30T17:06:27.766Z,18.33
2022-08-30T17:08:56.358Z,18.37
2022-08-30T17:11:24.037Z,18.28
2022-08-30T17:13:50.861Z,18.33
2022-08-30T17:16:17.710Z,18.17
2022-08-30T17:18:53.820Z,18.11
2022-08-30T17:21:20.308Z,18.03
2022-08-30T17:23:49.246Z,17.84
2022-08-30T17:26:16.532Z,17.86
2022-08-30T17:28:45.811Z,18.02
2022-08-30T17:31:14.762Z,17.97
2022-08-30T17:33:43.005Z,17.78
2022-08-30T17:36:11.841Z,17.67
2022-08-30T17:38:38.282Z,17.55
2022-08-30T17:41:11.333Z,17.49
2022-08-30T17:43:37.748Z,17.71
2022-08-30T17:46:05.430Z,17.81
2022-08-30T17:48:31.896Z,17.92
2022-08-30T17:50:58.420Z,18.05
2022-08-30T17:53:25.248Z,18.07
2022-08-30T17:55:52.004Z,18.02
2022-08-30T17:58:18.679Z,18.10
2022-08-30T18:00:50.221Z,17.98
2022-08-30T18:03:17.444Z,18.09
2022-08-30T18:05:47.017Z,18.09
2022-08-30T18:08:13.954Z,18.01
2022-08-30T18:10:40.673Z,17.88
2022-08-30T18:13:07.145Z,17.90
2022-08-30T18:15:33.859Z,17.80
2022-08-30T18:18:00.829Z,17.79
2022-08-30T18:20:31.428Z,17.85
2022-08-30T18:22:57.938Z,17.65
2022-08-30T18:25:24.351Z,17.26
2022-08-30T18:27:59.090Z,17.23
2022-08-30T18:30:31.186Z,17.12
2022-08-30T18:33:00.544Z,16.78
2022-08-30T18:35:29.625Z,16.53
2022-08-30T18:37:57.302Z,16.43
2022-08-30T18:40:23.761Z,16.41
2022-08-30T18:42:50.723Z,16.36
2022-08-30T18:45:17.410Z,16.22
2022-08-30T18:47:45.003Z,16.20
2022-08-30T18:50:12.474Z,16.07
2022-08-30T18:52:38.993Z,15.91
2022-08-30T18:55:06.930Z,16.06
2022-08-30T18:57:34.977Z,15.92
2022-08-30T19:00:03.568Z,16.02
2022-08-30T19:02:30.027Z,15.97
2022-08-30T19:04:56.669Z,16.06
2022-08-30T19:07:26.756Z,15.95
2022-08-30T19:12:43.735Z,15.94
2022-08-30T19:15:11.445Z,15.86
2022-08-30T19:17:39.067Z,15.88
2022-08-30T19:20:09.915Z,15.89
2022-08-30T19:25:24.191Z,15.89
2022-08-30T19:27:51.345Z,15.94
2022-08-30T19:30:29.364Z,15.90
2022-08-30T19:32:57.197Z,15.89
2022-08-30T19:35:24.399Z,15.95
2022-08-30T19:37:50.824Z,16.18
2022-08-30T19:40:18.928Z,16.22
2022-08-30T19:42:45.839Z,16.38
2022-08-30T19:45:14.069Z,16.45
2022-08-30T19:47:40.550Z,16.57
2022-08-30T19:50:07.191Z,16.59
2022-08-30T19:52:36.195Z,16.70
2022-08-30T19:55:04.705Z,16.65
2022-08-30T19:57:31.525Z,16.68
2022-08-30T19:59:57.908Z,16.67
2022-08-30T20:02:24.667Z,16.68
2022-08-30T20:04:53.895Z,16.72
2022-08-30T20:07:25.231Z,16.81
2022-08-30T20:09:53.908Z,16.70
2022-08-30T20:12:20.375Z,16.69
2022-08-30T20:14:47.391Z,16.68
2022-08-30T20:17:14.527Z,16.72
2022-08-30T20:19:41.753Z,16.71
2022-08-30T20:22:08.616Z,16.71
2022-08-30T20:24:31.960Z,15.94
2022-08-30T20:24:33.330Z,15.94
2022-08-30T20:27:03.628Z,16.57
2022-08-30T20:29:30.267Z,16.51
2022-08-30T20:31:56.956Z,16.48
2022-08-30T20:34:27.419Z,16.43
2022-08-30T20:36:55.361Z,16.53
2022-08-30T20:39:22.397Z,16.30
2022-08-30T20:41:48.913Z,16.47
2022-08-30T20:44:16.206Z,16.36
2022-08-30T20:46:43.789Z,16.12
2022-08-30T20:49:10.692Z,16.00
2022-08-30T20:51:37.230Z,16.01
2022-08-30T20:54:06.219Z,15.88
2022-08-30T20:56:34.318Z,16.08
2022-08-30T20:59:02.564Z,15.74
2022-08-30T21:01:30.667Z,15.73
2022-08-30T21:03:57.122Z,15.82
2022-08-30T21:06:23.670Z,15.86
2022-08-30T21:08:50.029Z,15.68
2022-08-30T21:11:16.490Z,15.65
2022-08-30T21:13:43.659Z,15.49
2022-08-30T21:16:09.998Z,15.63
2022-08-30T21:18:38.803Z,15.64
2022-08-30T21:21:12.552Z,15.54
2022-08-30T21:23:39.362Z,15.59
2022-08-30T21:26:06.547Z,15.81
2022-08-30T21:28:33.556Z,15.80
2022-08-30T21:31:07.791Z,15.74
2022-08-30T21:33:34.550Z,15.86
2022-08-30T21:36:19.553Z,15.80
2022-08-30T21:38:45.954Z,15.81
2022-08-30T21:41:12.774Z,15.84
2022-08-30T21:43:39.191Z,15.85
2022-08-30T21:46:06.948Z,15.91
2022-08-30T21:48:33.824Z,15.90
2022-08-30T21:51:07.894Z,15.81
2022-08-30T21:53:34.643Z,15.83
2022-08-30T21:56:13.464Z,15.81
2022-08-30T21:58:43.951Z,15.80
2022-08-30T22:01:15.209Z,15.72
2022-08-30T22:03:44.316Z,15.73
2022-08-30T22:06:11.701Z,15.71
2022-08-30T22:08:39.465Z,15.59
2022-08-30T22:11:08.037Z,15.64
2022-08-30T22:13:35.285Z,15.57
2022-08-30T22:16:01.990Z,15.51
2022-08-30T22:18:28.376Z,15.48
2022-08-30T22:20:54.776Z,15.49
2022-08-30T22:23:23.162Z,15.45
2022-08-30T22:25:51.581Z,15.53
2022-08-30T22:28:18.723Z,15.49
2022-08-30T22:30:45.443Z,15.42
2022-08-30T22:33:11.872Z,15.45
2022-08-30T22:35:38.996Z,15.42
2022-08-30T22:38:05.801Z,15.43
2022-08-30T22:40:32.355Z,15.38
2022-08-30T22:42:59.968Z,15.35
2022-08-30T22:45:27.241Z,15.36
2022-08-30T22:47:53.918Z,15.27
2022-08-30T22:50:20.434Z,15.28
2022-08-30T22:52:46.897Z,15.26
2022-08-30T22:55:13.338Z,15.21
2022-08-30T22:57:39.810Z,15.24
2022-08-30T23:00:10.455Z,15.07
2022-08-30T23:02:37.003Z,15.17
2022-08-30T23:05:04.551Z,15.13
2022-08-30T23:07:31.142Z,14.98
2022-08-30T23:09:59.103Z,15.03
2022-08-30T23:12:26.035Z,15.07
2022-08-30T23:14:53.125Z,15.02
2022-08-30T23:17:19.974Z,14.99
2022-08-30T23:19:46.686Z,14.89
2022-08-30T23:22:13.698Z,14.99
2022-08-30T23:24:58.985Z,14.92
2022-08-30T23:27:44.744Z,14.93
2022-08-30T23:30:29.946Z,15.06
2022-08-30T23:33:14.894Z,15.02
2022-08-30T23:35:59.573Z,14.98
2022-08-30T23:38:44.332Z,15.01
2022-08-30T23:41:33.866Z,14.96
2022-08-30T23:44:19.341Z,15.01
2022-08-30T23:47:04.070Z,14.97
2022-08-30T23:49:48.801Z,14.99
2022-08-30T23:52:33.498Z,14.99
2022-08-30T23:55:18.412Z,14.91
2022-08-30T23:58:03.177Z,14.90
